Wellton, Arizona
Current Conditions -  °F | °C
As of 7:57 AM on Monday 24 Nov 2014 (Local Time) from KNYL Reporting Station
Scattered Clouds Scattered Clouds  
Wind Chill: 12°   Ceiling: Unl
Heat Index: 12°   Visibility: 10mi
Dew Point: -11°   Wind: 6mph
Humidity: 19%   Direction: 30°NNE
Pressure: 30.22"   Gusts: NA
Location:  32.67°N, 114.15°W
Report Text: KNYL 241457Z 03005KT 10SM SCT250 12/M11 A3022 RMK AO2 SLP232 T01221111 53019
Loading
Personal Weather Stations






























Interactive Weather Map New forecast layout! Learn more

10-Day Weather Forecast

Advertisements
Track Severe Weather on mobile